Main page
METAR-TAF:

METAR-TAF

Airports :

Dresden Airport

Dresden, Germany

latitude: 51-08N, longitude: 013-45E, elevation: 230 m

Current weather observation

The report was made 30 minutes ago, at 23:20 UTC
Wind 1 kt from the Northeast
Temperature 19°C
Humidity 49%
Pressure 1013 hPa
Visibility 10 km or more
no clouds below 1500 m and no cumulonimbus

METAR: EDDC 202320Z 04001KT CAVOK 19/08 Q1013

Time: 01:50 (23:50 UTC)

Forecast

The report was made 50 minutes ago, at 23:00 UTC
Forecast valid from 21 at 00 UTC to 21 at 24 UTC
Wind 6 kt from the East/Southeast
Visibility 10 km or more
no clouds below 1500 m and no cumulonimbus
Becoming
from 21 at 09 UTC to 21 at 11 UTC
Wind 8 kt from the East/Northeast

TAF: EDDC 202300Z 2100/2124 12006KT CAVOK BECMG 2109/2111 06008KT

Weather observations and forecasts of more than 4000 airports (METAR and TAF reports).

The available stations are represented by yellow and red dots on the map.

Hover mouse over dot to see the name of the station.

Then click to see weather observations and forecasts.

To change the map : click on the green buttons with a black cross to zoom in, on the green button with a dash to zoom out, or on the green arrows for adjacent maps.


METAR-TAF: